createdAt,value
2023-01-10T00:00:33.028Z,20.3
2023-01-10T00:15:32.455Z,20.2
2023-01-10T00:30:32.462Z,20.2
2023-01-10T00:45:32.261Z,20.2
2023-01-10T01:00:33.194Z,20.2
2023-01-10T01:15:32.469Z,20.2
2023-01-10T01:30:32.963Z,20.2
2023-01-10T01:45:32.103Z,20.1
2023-01-10T02:00:32.004Z,20.1
2023-01-10T02:15:31.904Z,20.1
2023-01-10T02:30:32.888Z,20.1
2023-01-10T02:45:32.642Z,20.1
2023-01-10T03:00:32.064Z,20.1
2023-01-10T03:15:32.656Z,20.1
2023-01-10T03:30:31.786Z,20.1
2023-01-10T03:45:32.469Z,20.1
2023-01-10T04:00:32.594Z,20.0
2023-01-10T04:15:31.821Z,20.0
2023-01-10T04:30:32.151Z,20.1
2023-01-10T04:45:32.540Z,20.0
2023-01-10T05:00:32.764Z,20
2023-01-10T05:15:31.993Z,20
2023-01-10T05:30:32.388Z,20
2023-01-10T05:45:32.695Z,20
2023-01-10T06:00:34.797Z,20
2023-01-10T06:15:32.303Z,20
2023-01-10T06:30:32.285Z,20
2023-01-10T06:45:32.224Z,20
2023-01-10T07:00:35.045Z,20
2023-01-10T07:15:32.118Z,20.1
2023-01-10T07:30:34.331Z,20.1
2023-01-10T07:45:32.871Z,20.2
2023-01-10T08:00:35.453Z,20.2
2023-01-10T08:15:32.170Z,20.3
2023-01-10T08:30:32.721Z,20.3
2023-01-10T08:45:32.764Z,20.4
2023-01-10T09:00:32.659Z,20.5
2023-01-10T09:15:32.039Z,20.5
2023-01-10T09:30:32.443Z,20.6
2023-01-10T09:45:31.935Z,20.6
2023-01-10T10:00:32.860Z,20.6
2023-01-10T10:15:32.789Z,20.7
2023-01-10T10:30:32.536Z,20.7
2023-01-10T10:45:32.349Z,20.7
2023-01-10T11:00:32.717Z,20.7
2023-01-10T11:15:32.783Z,20.8
2023-01-10T11:30:32.606Z,20.8
2023-01-10T11:45:31.994Z,20.8
2023-01-10T12:00:34.699Z,20.8
2023-01-10T12:15:32.174Z,20.8
2023-01-10T12:30:32.637Z,20.8
2023-01-10T12:45:32.016Z,20.9
2023-01-10T13:00:37.531Z,20.9
2023-01-10T13:15:32.370Z,20.9
2023-01-10T13:30:32.243Z,20.9
2023-01-10T13:45:32.695Z,20.9
2023-01-10T14:00:32.233Z,20.9
2023-01-10T14:15:32.950Z,20.9
2023-01-10T14:30:32.596Z,20.9
2023-01-10T14:45:32.554Z,20.8
2023-01-10T15:00:34.735Z,20.8
2023-01-10T15:15:32.474Z,20.8
2023-01-10T15:30:32.688Z,20.8
2023-01-10T15:45:31.859Z,20.8
2023-01-10T16:00:35.686Z,20.8
2023-01-10T16:15:32.455Z,20.8
2023-01-10T16:30:32.753Z,20.8
2023-01-10T16:45:32.006Z,20.8
2023-01-10T17:00:36.957Z,20.8
2023-01-10T17:15:32.426Z,20.8
2023-01-10T17:30:33.302Z,20.7
2023-01-10T17:45:32.509Z,20.7
2023-01-10T18:00:35.353Z,20.7
2023-01-10T18:15:32.358Z,20.7
2023-01-10T18:30:33.736Z,20.6
2023-01-10T18:45:32.207Z,20.6
2023-01-10T19:00:34.738Z,20.6
2023-01-10T19:15:32.064Z,20.5
2023-01-10T19:30:32.676Z,20.5
2023-01-10T19:45:32.440Z,20.6
2023-01-10T20:00:32.832Z,20.6
2023-01-10T20:15:32.656Z,20.4
2023-01-10T20:30:32.331Z,20.4
2023-01-10T20:45:32.467Z,20.3
2023-01-10T21:00:32.707Z,20.3
2023-01-10T21:15:32.606Z,20.3
2023-01-10T21:30:32.808Z,20.3
2023-01-10T21:45:32.497Z,20.3
2023-01-10T22:00:32.754Z,20.3
2023-01-10T22:15:32.520Z,20.2
2023-01-10T22:30:32.761Z,20.2
2023-01-10T22:45:32.939Z,20.2
2023-01-10T23:00:33.710Z,20.2
2023-01-10T23:15:32.372Z,20.2
2023-01-10T23:30:32.554Z,20.2
2023-01-10T23:45:32.062Z,20.2
